sensor_id;sensor_type;location;lat;lon;timestamp;P1;P2;P0
28647;PMS5003;17137;51.494;-0.262;2022-10-16T00:00:28;12;9;
28647;PMS5003;17137;51.494;-0.262;2022-10-16T00:01:03;12;9;
28647;PMS5003;17137;51.494;-0.262;2022-10-16T00:01:35;12;9;
28647;PMS5003;17137;51.494;-0.262;2022-10-16T00:02:05;12;10;
28647;PMS5003;17137;51.494;-0.262;2022-10-16T00:02:36;12;10;
28647;PMS5003;17137;51.494;-0.262;2022-10-16T00:03:06;12;10;
28647;PMS5003;17137;51.494;-0.262;2022-10-16T00:03:37;11;9;
28647;PMS5003;17137;51.494;-0.262;2022-10-16T00:04:08;11;9;
28647;PMS5003;17137;51.494;-0.262;2022-10-16T00:04:39;11;9;
28647;PMS5003;17137;51.494;-0.262;2022-10-16T00:05:09;11;9;
28647;PMS5003;17137;51.494;-0.262;2022-10-16T00:05:40;11;9;
28647;PMS5003;17137;51.494;-0.262;2022-10-16T00:06:12;11;9;
28647;PMS5003;17137;51.494;-0.262;2022-10-16T00:06:44;13;10;
28647;PMS5003;17137;51.494;-0.262;2022-10-16T00:07:14;13;10;
28647;PMS5003;17137;51.494;-0.262;2022-10-16T00:07:44;13;11;
28647;PMS5003;17137;51.494;-0.262;2022-10-16T00:08:15;13;11;
28647;PMS5003;17137;51.494;-0.262;2022-10-16T00:08:45;13;11;
28647;PMS5003;17137;51.494;-0.262;2022-10-16T00:09:16;12;10;
28647;PMS5003;17137;51.494;-0.262;2022-10-16T00:09:46;12;10;
28647;PMS5003;17137;51.494;-0.262;2022-10-16T00:10:16;12;10;
28647;PMS5003;17137;51.494;-0.262;2022-10-16T00:10:47;10;9;
28647;PMS5003;17137;51.494;-0.262;2022-10-16T00:11:18;10;9;
28647;PMS5003;17137;51.494;-0.262;2022-10-16T00:11:50;10;9;
28647;PMS5003;17137;51.494;-0.262;2022-10-16T00:12:20;10;10;
28647;PMS5003;17137;51.494;-0.262;2022-10-16T00:12:50;10;10;
28647;PMS5003;17137;51.494;-0.262;2022-10-16T00:13:20;10;10;
28647;PMS5003;17137;51.494;-0.262;2022-10-16T00:13:51;10;10;
28647;PMS5003;17137;51.494;-0.262;2022-10-16T00:14:24;10;10;
28647;PMS5003;17137;51.494;-0.262;2022-10-16T00:14:55;14;13;
28647;PMS5003;17137;51.494;-0.262;2022-10-16T00:15:25;13;12;
28647;PMS5003;17137;51.494;-0.262;2022-10-16T00:15:56;13;12;
28647;PMS5003;17137;51.494;-0.262;2022-10-16T00:16:28;13;12;
28647;PMS5003;17137;51.494;-0.262;2022-10-16T00:16:58;13;12;
28647;PMS5003;17137;51.494;-0.262;2022-10-16T00:17:29;13;12;
28647;PMS5003;17137;51.494;-0.262;2022-10-16T00:18:00;13;12;
28647;PMS5003;17137;51.494;-0.262;2022-10-16T00:18:30;13;12;
28647;PMS5003;17137;51.494;-0.262;2022-10-16T00:19:01;13;12;
28647;PMS5003;17137;51.494;-0.262;2022-10-16T00:19:31;13;12;
28647;PMS5003;17137;51.494;-0.262;2022-10-16T00:20:02;14;13;
28647;PMS5003;17137;51.494;-0.262;2022-10-16T00:20:33;14;13;
28647;PMS5003;17137;51.494;-0.262;2022-10-16T00:21:04;14;13;
28647;PMS5003;17137;51.494;-0.262;2022-10-16T00:21:36;14;13;
28647;PMS5003;17137;51.494;-0.262;2022-10-16T00:22:07;14;13;
28647;PMS5003;17137;51.494;-0.262;2022-10-16T00:22:37;14;13;
28647;PMS5003;17137;51.494;-0.262;2022-10-16T00:23:07;11;10;
28647;PMS5003;17137;51.494;-0.262;2022-10-16T00:23:38;11;10;
28647;PMS5003;17137;51.494;-0.262;2022-10-16T00:24:09;10;9;
28647;PMS5003;17137;51.494;-0.262;2022-10-16T00:24:40;10;9;
28647;PMS5003;17137;51.494;-0.262;2022-10-16T00:25:10;10;9;
28647;PMS5003;17137;51.494;-0.262;2022-10-16T00:25:40;10;8;
28647;PMS5003;17137;51.494;-0.262;2022-10-16T00:26:11;10;8;
28647;PMS5003;17137;51.494;-0.262;2022-10-16T00:26:44;10;8;
28647;PMS5003;17137;51.494;-0.262;2022-10-16T00:27:14;8;8;
28647;PMS5003;17137;51.494;-0.262;2022-10-16T00:27:45;8;8;
28647;PMS5003;17137;51.494;-0.262;2022-10-16T00:28:15;8;8;
28647;PMS5003;17137;51.494;-0.262;2022-10-16T00:28:46;8;8;
28647;PMS5003;17137;51.494;-0.262;2022-10-16T00:29:17;8;8;
28647;PMS5003;17137;51.494;-0.262;2022-10-16T00:29:49;8;8;
28647;PMS5003;17137;51.494;-0.262;2022-10-16T00:30:20;8;8;
28647;PMS5003;17137;51.494;-0.262;2022-10-16T00:30:50;8;8;
28647;PMS5003;17137;51.494;-0.262;2022-10-16T00:31:21;14;10;
28647;PMS5003;17137;51.494;-0.262;2022-10-16T00:31:52;15;11;
28647;PMS5003;17137;51.494;-0.262;2022-10-16T00:32:23;15;11;
28647;PMS5003;17137;51.494;-0.262;2022-10-16T00:32:53;15;11;
28647;PMS5003;17137;51.494;-0.262;2022-10-16T00:33:23;15;11;
28647;PMS5003;17137;51.494;-0.262;2022-10-16T00:33:54;15;11;
28647;PMS5003;17137;51.494;-0.262;2022-10-16T00:34:25;15;11;
28647;PMS5003;17137;51.494;-0.262;2022-10-16T00:34:55;15;11;
28647;PMS5003;17137;51.494;-0.262;2022-10-16T00:35:26;15;11;
28647;PMS5003;17137;51.494;-0.262;2022-10-16T00:35:57;15;11;
28647;PMS5003;17137;51.494;-0.262;2022-10-16T00:36:27;13;11;
28647;PMS5003;17137;51.494;-0.262;2022-10-16T00:36:58;13;11;
28647;PMS5003;17137;51.494;-0.262;2022-10-16T00:37:28;13;11;
28647;PMS5003;17137;51.494;-0.262;2022-10-16T00:37:58;13;11;
28647;PMS5003;17137;51.494;-0.262;2022-10-16T00:38:29;13;11;
28647;PMS5003;17137;51.494;-0.262;2022-10-16T00:38:59;13;11;
28647;PMS5003;17137;51.494;-0.262;2022-10-16T00:39:29;7;7;
28647;PMS5003;17137;51.494;-0.262;2022-10-16T00:40:00;7;7;
28647;PMS5003;17137;51.494;-0.262;2022-10-16T00:40:30;7;7;
28647;PMS5003;17137;51.494;-0.262;2022-10-16T00:41:00;7;7;
28647;PMS5003;17137;51.494;-0.262;2022-10-16T00:41:31;7;7;
28647;PMS5003;17137;51.494;-0.262;2022-10-16T00:42:02;7;7;
28647;PMS5003;17137;51.494;-0.262;2022-10-16T00:42:32;8;8;
28647;PMS5003;17137;51.494;-0.262;2022-10-16T00:43:04;8;8;
28647;PMS5003;17137;51.494;-0.262;2022-10-16T00:43:39;8;8;
28647;PMS5003;17137;51.494;-0.262;2022-10-16T00:44:51;8;8;
28647;PMS5003;17137;51.494;-0.262;2022-10-16T00:45:22;8;8;
28647;PMS5003;17137;51.494;-0.262;2022-10-16T00:45:53;8;8;
28647;PMS5003;17137;51.494;-0.262;2022-10-16T00:46:24;9;9;
28647;PMS5003;17137;51.494;-0.262;2022-10-16T00:46:57;9;9;
28647;PMS5003;17137;51.494;-0.262;2022-10-16T00:47:27;9;9;
28647;PMS5003;17137;51.494;-0.262;2022-10-16T00:48:01;8;8;
28647;PMS5003;17137;51.494;-0.262;2022-10-16T00:48:31;8;7;
28647;PMS5003;17137;51.494;-0.262;2022-10-16T00:49:03;7;6;
28647;PMS5003;17137;51.494;-0.262;2022-10-16T00:49:35;7;6;
28647;PMS5003;17137;51.494;-0.262;2022-10-16T00:50:06;7;6;
28647;PMS5003;17137;51.494;-0.262;2022-10-16T00:50:40;7;6;
28647;PMS5003;17137;51.494;-0.262;2022-10-16T00:51:10;7;6;
28647;PMS5003;17137;51.494;-0.262;2022-10-16T00:51:41;7;6;
28647;PMS5003;17137;51.494;-0.262;2022-10-16T00:52:15;7;6;
28647;PMS5003;17137;51.494;-0.262;2022-10-16T00:52:47;7;6;
28647;PMS5003;17137;51.494;-0.262;2022-10-16T00:53:19;7;6;
28647;PMS5003;17137;51.494;-0.262;2022-10-16T00:53:51;6;6;
28647;PMS5003;17137;51.494;-0.262;2022-10-16T00:54:22;6;6;
28647;PMS5003;17137;51.494;-0.262;2022-10-16T00:54:54;6;6;
28647;PMS5003;17137;51.494;-0.262;2022-10-16T00:55:27;6;5;
28647;PMS5003;17137;51.494;-0.262;2022-10-16T00:55:58;6;5;
28647;PMS5003;17137;51.494;-0.262;2022-10-16T00:56:29;6;5;
28647;PMS5003;17137;51.494;-0.262;2022-10-16T00:57:00;6;6;
28647;PMS5003;17137;51.494;-0.262;2022-10-16T00:57:33;6;6;
28647;PMS5003;17137;51.494;-0.262;2022-10-16T00:58:04;6;6;
28647;PMS5003;17137;51.494;-0.262;2022-10-16T00:58:35;6;6;
28647;PMS5003;17137;51.494;-0.262;2022-10-16T00:59:06;6;6;
28647;PMS5003;17137;51.494;-0.262;2022-10-16T00:59:42;6;6;
28647;PMS5003;17137;51.494;-0.262;2022-10-16T01:00:16;6;6;
28647;PMS5003;17137;51.494;-0.262;2022-10-16T01:00:48;6;6;
28647;PMS5003;17137;51.494;-0.262;2022-10-16T01:01:18;6;6;
28647;PMS5003;17137;51.494;-0.262;2022-10-16T01:01:48;6;6;
28647;PMS5003;17137;51.494;-0.262;2022-10-16T01:02:19;6;6;
28647;PMS5003;17137;51.494;-0.262;2022-10-16T01:02:51;6;6;
28647;PMS5003;17137;51.494;-0.262;2022-10-16T01:03:24;6;6;
28647;PMS5003;17137;51.494;-0.262;2022-10-16T01:03:57;6;6;
28647;PMS5003;17137;51.494;-0.262;2022-10-16T01:04:28;6;6;
28647;PMS5003;17137;51.494;-0.262;2022-10-16T01:05:04;6;6;
28647;PMS5003;17137;51.494;-0.262;2022-10-16T01:05:37;6;6;
28647;PMS5003;17137;51.494;-0.262;2022-10-16T01:06:18;6;6;
28647;PMS5003;17137;51.494;-0.262;2022-10-16T01:06:54;6;6;
28647;PMS5003;17137;51.494;-0.262;2022-10-16T01:07:34;6;6;
28647;PMS5003;17137;51.494;-0.262;2022-10-16T01:08:13;6;6;
28647;PMS5003;17137;51.494;-0.262;2022-10-16T01:08:55;6;6;
28647;PMS5003;17137;51.494;-0.262;2022-10-16T01:09:36;6;6;
28647;PMS5003;17137;51.494;-0.262;2022-10-16T01:10:17;6;6;
28647;PMS5003;17137;51.494;-0.262;2022-10-16T01:10:57;6;6;
28647;PMS5003;17137;51.494;-0.262;2022-10-16T01:11:33;6;6;
28647;PMS5003;17137;51.494;-0.262;2022-10-16T01:12:12;6;6;
28647;PMS5003;17137;51.494;-0.262;2022-10-16T01:12:50;6;6;
28647;PMS5003;17137;51.494;-0.262;2022-10-16T01:13:27;6;6;
28647;PMS5003;17137;51.494;-0.262;2022-10-16T01:14:04;6;6;
28647;PMS5003;17137;51.494;-0.262;2022-10-16T01:14:40;8;8;
28647;PMS5003;17137;51.494;-0.262;2022-10-16T01:15:18;9;9;
28647;PMS5003;17137;51.494;-0.262;2022-10-16T01:15:58;6;6;
28647;PMS5003;17137;51.494;-0.262;2022-10-16T01:16:36;6;6;
28647;PMS5003;17137;51.494;-0.262;2022-10-16T01:17:14;6;6;
28647;PMS5003;17137;51.494;-0.262;2022-10-16T01:17:51;7;6;
28647;PMS5003;17137;51.494;-0.262;2022-10-16T01:18:28;7;6;
28647;PMS5003;17137;51.494;-0.262;2022-10-16T01:19:05;7;6;
28647;PMS5003;17137;51.494;-0.262;2022-10-16T01:19:47;7;6;
28647;PMS5003;17137;51.494;-0.262;2022-10-16T01:20:31;7;6;
28647;PMS5003;17137;51.494;-0.262;2022-10-16T01:21:04;7;6;
28647;PMS5003;17137;51.494;-0.262;2022-10-16T01:21:38;8;6;
28647;PMS5003;17137;51.494;-0.262;2022-10-16T01:22:12;8;6;
28647;PMS5003;17137;51.494;-0.262;2022-10-16T01:22:46;8;6;
28647;PMS5003;17137;51.494;-0.262;2022-10-16T01:23:31;8;7;
28647;PMS5003;17137;51.494;-0.262;2022-10-16T01:24:12;8;7;
28647;PMS5003;17137;51.494;-0.262;2022-10-16T01:24:50;8;7;
28647;PMS5003;17137;51.494;-0.262;2022-10-16T01:25:25;8;7;
28647;PMS5003;17137;51.494;-0.262;2022-10-16T01:26:09;6;6;
28647;PMS5003;17137;51.494;-0.262;2022-10-16T01:27:32;6;6;
28647;PMS5003;17137;51.494;-0.262;2022-10-16T01:28:05;6;6;
28647;PMS5003;17137;51.494;-0.262;2022-10-16T01:28:39;7;6;
28647;PMS5003;17137;51.494;-0.262;2022-10-16T01:29:16;7;6;
28647;PMS5003;17137;51.494;-0.262;2022-10-16T01:29:52;7;6;
28647;PMS5003;17137;51.494;-0.262;2022-10-16T01:30:26;7;6;
28647;PMS5003;17137;51.494;-0.262;2022-10-16T01:31:01;7;6;
28647;PMS5003;17137;51.494;-0.262;2022-10-16T01:31:34;7;6;
28647;PMS5003;17137;51.494;-0.262;2022-10-16T01:32:11;7;5;
28647;PMS5003;17137;51.494;-0.262;2022-10-16T01:32:47;7;5;
28647;PMS5003;17137;51.494;-0.262;2022-10-16T01:33:21;7;5;
28647;PMS5003;17137;51.494;-0.262;2022-10-16T01:33:59;7;5;
28647;PMS5003;17137;51.494;-0.262;2022-10-16T01:34:33;7;5;
28647;PMS5003;17137;51.494;-0.262;2022-10-16T01:35:09;7;5;
28647;PMS5003;17137;51.494;-0.262;2022-10-16T01:35:46;8;6;
28647;PMS5003;17137;51.494;-0.262;2022-10-16T01:36:21;8;6;
28647;PMS5003;17137;51.494;-0.262;2022-10-16T01:36:59;8;6;
28647;PMS5003;17137;51.494;-0.262;2022-10-16T01:38:05;8;6;
28647;PMS5003;17137;51.494;-0.262;2022-10-16T01:38:41;8;6;
28647;PMS5003;17137;51.494;-0.262;2022-10-16T01:39:18;8;6;
28647;PMS5003;17137;51.494;-0.262;2022-10-16T01:39:52;8;6;
28647;PMS5003;17137;51.494;-0.262;2022-10-16T01:40:27;8;6;
28647;PMS5003;17137;51.494;-0.262;2022-10-16T01:41:00;8;6;
28647;PMS5003;17137;51.494;-0.262;2022-10-16T01:41:35;8;6;
28647;PMS5003;17137;51.494;-0.262;2022-10-16T01:42:11;8;6;
28647;PMS5003;17137;51.494;-0.262;2022-10-16T01:42:46;8;6;
28647;PMS5003;17137;51.494;-0.262;2022-10-16T01:43:23;8;6;
28647;PMS5003;17137;51.494;-0.262;2022-10-16T01:43:57;8;7;
28647;PMS5003;17137;51.494;-0.262;2022-10-16T01:44:33;8;7;
28647;PMS5003;17137;51.494;-0.262;2022-10-16T01:45:07;4;4;
28647;PMS5003;17137;51.494;-0.262;2022-10-16T01:45:40;4;4;
28647;PMS5003;17137;51.494;-0.262;2022-10-16T01:46:13;4;4;
28647;PMS5003;17137;51.494;-0.262;2022-10-16T01:46:50;4;4;
28647;PMS5003;17137;51.494;-0.262;2022-10-16T01:47:23;4;4;
28647;PMS5003;17137;51.494;-0.262;2022-10-16T01:47:56;4;4;
28647;PMS5003;17137;51.494;-0.262;2022-10-16T01:48:29;4;4;
28647;PMS5003;17137;51.494;-0.262;2022-10-16T01:49:02;4;4;
28647;PMS5003;17137;51.494;-0.262;2022-10-16T01:49:35;4;4;
28647;PMS5003;17137;51.494;-0.262;2022-10-16T01:50:08;3;3;
28647;PMS5003;17137;51.494;-0.262;2022-10-16T01:50:39;3;3;
28647;PMS5003;17137;51.494;-0.262;2022-10-16T01:51:13;3;3;
28647;PMS5003;17137;51.494;-0.262;2022-10-16T01:51:47;4;4;
28647;PMS5003;17137;51.494;-0.262;2022-10-16T01:52:21;5;5;
28647;PMS5003;17137;51.494;-0.262;2022-10-16T01:52:55;5;5;
28647;PMS5003;17137;51.494;-0.262;2022-10-16T01:53:28;5;5;
28647;PMS5003;17137;51.494;-0.262;2022-10-16T01:54:00;5;3;
28647;PMS5003;17137;51.494;-0.262;2022-10-16T01:54:32;6;4;
28647;PMS5003;17137;51.494;-0.262;2022-10-16T01:55:05;6;4;
28647;PMS5003;17137;51.494;-0.262;2022-10-16T01:55:39;4;4;
28647;PMS5003;17137;51.494;-0.262;2022-10-16T01:56:13;4;4;
28647;PMS5003;17137;51.494;-0.262;2022-10-16T01:56:47;4;4;
28647;PMS5003;17137;51.494;-0.262;2022-10-16T01:57:20;5;5;
28647;PMS5003;17137;51.494;-0.262;2022-10-16T01:57:54;5;5;
28647;PMS5003;17137;51.494;-0.262;2022-10-16T01:58:26;5;5;
28647;PMS5003;17137;51.494;-0.262;2022-10-16T01:59:00;5;5;
28647;PMS5003;17137;51.494;-0.262;2022-10-16T01:59:35;5;5;
28647;PMS5003;17137;51.494;-0.262;2022-10-16T02:00:11;5;5;
28647;PMS5003;17137;51.494;-0.262;2022-10-16T02:00:44;4;4;
28647;PMS5003;17137;51.494;-0.262;2022-10-16T02:01:16;4;4;
28647;PMS5003;17137;51.494;-0.262;2022-10-16T02:01:50;4;4;
28647;PMS5003;17137;51.494;-0.262;2022-10-16T02:02:25;5;5;
28647;PMS5003;17137;51.494;-0.262;2022-10-16T02:02:59;2;2;
28647;PMS5003;17137;51.494;-0.262;2022-10-16T02:03:34;2;2;
28647;PMS5003;17137;51.494;-0.262;2022-10-16T02:04:09;2;2;
28647;PMS5003;17137;51.494;-0.262;2022-10-16T02:04:45;2;2;
28647;PMS5003;17137;51.494;-0.262;2022-10-16T02:05:20;2;2;
28647;PMS5003;17137;51.494;-0.262;2022-10-16T02:05:56;2;2;
28647;PMS5003;17137;51.494;-0.262;2022-10-16T02:06:27;2;2;
28647;PMS5003;17137;51.494;-0.262;2022-10-16T02:06:58;2;2;
28647;PMS5003;17137;51.494;-0.262;2022-10-16T02:07:28;2;2;
28647;PMS5003;17137;51.494;-0.262;2022-10-16T02:07:59;2;2;
28647;PMS5003;17137;51.494;-0.262;2022-10-16T02:08:29;2;2;
28647;PMS5003;17137;51.494;-0.262;2022-10-16T02:09:01;2;2;
28647;PMS5003;17137;51.494;-0.262;2022-10-16T02:09:32;5;3;
28647;PMS5003;17137;51.494;-0.262;2022-10-16T02:10:04;5;3;
28647;PMS5003;17137;51.494;-0.262;2022-10-16T02:10:35;5;3;
28647;PMS5003;17137;51.494;-0.262;2022-10-16T02:11:06;5;3;
28647;PMS5003;17137;51.494;-0.262;2022-10-16T02:11:36;5;5;
28647;PMS5003;17137;51.494;-0.262;2022-10-16T02:12:09;5;5;
28647;PMS5003;17137;51.494;-0.262;2022-10-16T02:12:44;5;5;
28647;PMS5003;17137;51.494;-0.262;2022-10-16T02:13:21;5;5;
28647;PMS5003;17137;51.494;-0.262;2022-10-16T02:13:58;6;6;
28647;PMS5003;17137;51.494;-0.262;2022-10-16T02:14:33;6;6;
28647;PMS5003;17137;51.494;-0.262;2022-10-16T02:15:04;6;6;
28647;PMS5003;17137;51.494;-0.262;2022-10-16T02:15:34;6;6;
28647;PMS5003;17137;51.494;-0.262;2022-10-16T02:16:05;6;6;
28647;PMS5003;17137;51.494;-0.262;2022-10-16T02:16:38;6;6;
28647;PMS5003;17137;51.494;-0.262;2022-10-16T02:17:11;6;6;
28647;PMS5003;17137;51.494;-0.262;2022-10-16T02:17:44;6;6;
28647;PMS5003;17137;51.494;-0.262;2022-10-16T02:18:14;6;6;
28647;PMS5003;17137;51.494;-0.262;2022-10-16T02:18:45;5;5;
28647;PMS5003;17137;51.494;-0.262;2022-10-16T02:19:15;5;5;
28647;PMS5003;17137;51.494;-0.262;2022-10-16T02:19:47;5;5;
28647;PMS5003;17137;51.494;-0.262;2022-10-16T02:20:21;4;4;
28647;PMS5003;17137;51.494;-0.262;2022-10-16T02:20:57;4;4;
28647;PMS5003;17137;51.494;-0.262;2022-10-16T02:21:33;4;4;
28647;PMS5003;17137;51.494;-0.262;2022-10-16T02:22:12;4;4;
28647;PMS5003;17137;51.494;-0.262;2022-10-16T02:22:47;4;4;
28647;PMS5003;17137;51.494;-0.262;2022-10-16T02:23:23;4;4;
28647;PMS5003;17137;51.494;-0.262;2022-10-16T02:24:00;4;4;
28647;PMS5003;17137;51.494;-0.262;2022-10-16T02:24:36;4;4;
28647;PMS5003;17137;51.494;-0.262;2022-10-16T02:25:13;3;3;
28647;PMS5003;17137;51.494;-0.262;2022-10-16T02:25:48;3;3;
28647;PMS5003;17137;51.494;-0.262;2022-10-16T02:26:21;3;3;
28647;PMS5003;17137;51.494;-0.262;2022-10-16T02:27:00;3;3;
28647;PMS5003;17137;51.494;-0.262;2022-10-16T02:27:40;3;3;
28647;PMS5003;17137;51.494;-0.262;2022-10-16T02:28:16;3;3;
28647;PMS5003;17137;51.494;-0.262;2022-10-16T02:28:51;3;3;
28647;PMS5003;17137;51.494;-0.262;2022-10-16T02:29:26;3;3;
28647;PMS5003;17137;51.494;-0.262;2022-10-16T02:29:59;6;5;
28647;PMS5003;17137;51.494;-0.262;2022-10-16T02:30:36;6;5;
28647;PMS5003;17137;51.494;-0.262;2022-10-16T02:31:11;6;5;
28647;PMS5003;17137;51.494;-0.262;2022-10-16T02:31:46;6;5;
28647;PMS5003;17137;51.494;-0.262;2022-10-16T02:32:21;6;5;
28647;PMS5003;17137;51.494;-0.262;2022-10-16T02:32:54;6;5;
28647;PMS5003;17137;51.494;-0.262;2022-10-16T02:33:27;6;5;
28647;PMS5003;17137;51.494;-0.262;2022-10-16T02:33:59;5;4;
28647;PMS5003;17137;51.494;-0.262;2022-10-16T02:34:33;5;4;
28647;PMS5003;17137;51.494;-0.262;2022-10-16T02:35:05;5;4;
28647;PMS5003;17137;51.494;-0.262;2022-10-16T02:35:37;4;4;
28647;PMS5003;17137;51.494;-0.262;2022-10-16T02:36:08;4;4;
28647;PMS5003;17137;51.494;-0.262;2022-10-16T02:36:39;4;4;
28647;PMS5003;17137;51.494;-0.262;2022-10-16T02:37:11;4;4;
28647;PMS5003;17137;51.494;-0.262;2022-10-16T02:37:42;4;4;
28647;PMS5003;17137;51.494;-0.262;2022-10-16T02:38:12;4;4;
28647;PMS5003;17137;51.494;-0.262;2022-10-16T02:38:44;6;4;
28647;PMS5003;17137;51.494;-0.262;2022-10-16T02:39:15;6;5;
28647;PMS5003;17137;51.494;-0.262;2022-10-16T02:39:46;6;5;
28647;PMS5003;17137;51.494;-0.262;2022-10-16T02:40:17;5;4;
28647;PMS5003;17137;51.494;-0.262;2022-10-16T02:40:48;5;3;
28647;PMS5003;17137;51.494;-0.262;2022-10-16T02:41:20;5;3;
28647;PMS5003;17137;51.494;-0.262;2022-10-16T02:41:51;6;4;
28647;PMS5003;17137;51.494;-0.262;2022-10-16T02:42:27;6;5;
28647;PMS5003;17137;51.494;-0.262;2022-10-16T02:42:58;6;5;
28647;PMS5003;17137;51.494;-0.262;2022-10-16T02:43:28;6;5;
28647;PMS5003;17137;51.494;-0.262;2022-10-16T02:43:58;5;5;
28647;PMS5003;17137;51.494;-0.262;2022-10-16T02:44:29;5;5;
28647;PMS5003;17137;51.494;-0.262;2022-10-16T02:45:00;5;5;
28647;PMS5003;17137;51.494;-0.262;2022-10-16T02:45:30;5;5;
28647;PMS5003;17137;51.494;-0.262;2022-10-16T02:46:02;5;5;
28647;PMS5003;17137;51.494;-0.262;2022-10-16T02:46:32;5;5;
28647;PMS5003;17137;51.494;-0.262;2022-10-16T02:47:02;6;4;
28647;PMS5003;17137;51.494;-0.262;2022-10-16T02:47:33;6;4;
28647;PMS5003;17137;51.494;-0.262;2022-10-16T02:48:03;6;4;
28647;PMS5003;17137;51.494;-0.262;2022-10-16T02:48:33;4;4;
28647;PMS5003;17137;51.494;-0.262;2022-10-16T02:49:04;4;4;
28647;PMS5003;17137;51.494;-0.262;2022-10-16T02:49:34;4;4;
28647;PMS5003;17137;51.494;-0.262;2022-10-16T02:50:05;4;4;
28647;PMS5003;17137;51.494;-0.262;2022-10-16T02:50:36;4;4;
28647;PMS5003;17137;51.494;-0.262;2022-10-16T02:51:06;4;4;
28647;PMS5003;17137;51.494;-0.262;2022-10-16T02:51:36;4;4;
28647;PMS5003;17137;51.494;-0.262;2022-10-16T02:52:06;4;4;
28647;PMS5003;17137;51.494;-0.262;2022-10-16T02:52:37;4;4;
28647;PMS5003;17137;51.494;-0.262;2022-10-16T02:53:07;4;4;
28647;PMS5003;17137;51.494;-0.262;2022-10-16T02:53:37;4;4;
28647;PMS5003;17137;51.494;-0.262;2022-10-16T02:54:07;4;4;
28647;PMS5003;17137;51.494;-0.262;2022-10-16T02:54:38;4;4;
28647;PMS5003;17137;51.494;-0.262;2022-10-16T02:55:08;3;3;
28647;PMS5003;17137;51.494;-0.262;2022-10-16T02:55:38;3;3;
28647;PMS5003;17137;51.494;-0.262;2022-10-16T02:56:08;3;3;
28647;PMS5003;17137;51.494;-0.262;2022-10-16T02:56:39;3;3;
28647;PMS5003;17137;51.494;-0.262;2022-10-16T02:57:09;3;3;
28647;PMS5003;17137;51.494;-0.262;2022-10-16T02:57:39;3;3;
28647;PMS5003;17137;51.494;-0.262;2022-10-16T02:58:09;3;3;
28647;PMS5003;17137;51.494;-0.262;2022-10-16T02:58:40;3;3;
28647;PMS5003;17137;51.494;-0.262;2022-10-16T02:59:10;3;3;
28647;PMS5003;17137;51.494;-0.262;2022-10-16T02:59:40;3;3;
28647;PMS5003;17137;51.494;-0.262;2022-10-16T03:00:12;3;3;
28647;PMS5003;17137;51.494;-0.262;2022-10-16T03:00:43;4;4;
28647;PMS5003;17137;51.494;-0.262;2022-10-16T03:01:14;4;4;
28647;PMS5003;17137;51.494;-0.262;2022-10-16T03:01:44;4;4;
28647;PMS5003;17137;51.494;-0.262;2022-10-16T03:02:14;4;4;
28647;PMS5003;17137;51.494;-0.262;2022-10-16T03:02:44;4;4;
28647;PMS5003;17137;51.494;-0.262;2022-10-16T03:03:15;5;5;
28647;PMS5003;17137;51.494;-0.262;2022-10-16T03:03:46;5;5;
28647;PMS5003;17137;51.494;-0.262;2022-10-16T03:04:16;5;5;
28647;PMS5003;17137;51.494;-0.262;2022-10-16T03:04:46;4;4;
28647;PMS5003;17137;51.494;-0.262;2022-10-16T03:05:22;4;4;
28647;PMS5003;17137;51.494;-0.262;2022-10-16T03:05:52;4;4;
28647;PMS5003;17137;51.494;-0.262;2022-10-16T03:06:22;5;5;
28647;PMS5003;17137;51.494;-0.262;2022-10-16T03:06:52;5;5;
28647;PMS5003;17137;51.494;-0.262;2022-10-16T03:07:22;5;5;
28647;PMS5003;17137;51.494;-0.262;2022-10-16T03:07:53;4;4;
28647;PMS5003;17137;51.494;-0.262;2022-10-16T03:08:23;4;4;
28647;PMS5003;17137;51.494;-0.262;2022-10-16T03:08:54;4;4;
28647;PMS5003;17137;51.494;-0.262;2022-10-16T03:09:24;5;5;
28647;PMS5003;17137;51.494;-0.262;2022-10-16T03:09:55;5;5;
28647;PMS5003;17137;51.494;-0.262;2022-10-16T03:10:25;5;5;
28647;PMS5003;17137;51.494;-0.262;2022-10-16T03:10:55;5;5;
28647;PMS5003;17137;51.494;-0.262;2022-10-16T03:11:26;5;5;
28647;PMS5003;17137;51.494;-0.262;2022-10-16T03:11:56;5;5;
28647;PMS5003;17137;51.494;-0.262;2022-10-16T03:12:26;5;5;
28647;PMS5003;17137;51.494;-0.262;2022-10-16T03:12:57;5;5;
28647;PMS5003;17137;51.494;-0.262;2022-10-16T03:13:27;5;5;
28647;PMS5003;17137;51.494;-0.262;2022-10-16T03:13:58;5;5;
28647;PMS5003;17137;51.494;-0.262;2022-10-16T03:14:28;5;5;
28647;PMS5003;17137;51.494;-0.262;2022-10-16T03:14:58;5;5;
28647;PMS5003;17137;51.494;-0.262;2022-10-16T03:15:29;5;5;
28647;PMS5003;17137;51.494;-0.262;2022-10-16T03:15:59;5;5;
28647;PMS5003;17137;51.494;-0.262;2022-10-16T03:16:30;5;5;
28647;PMS5003;17137;51.494;-0.262;2022-10-16T03:17:00;5;5;
28647;PMS5003;17137;51.494;-0.262;2022-10-16T03:17:31;5;5;
28647;PMS5003;17137;51.494;-0.262;2022-10-16T03:18:02;5;5;
28647;PMS5003;17137;51.494;-0.262;2022-10-16T03:18:32;5;5;
28647;PMS5003;17137;51.494;-0.262;2022-10-16T03:19:03;5;5;
28647;PMS5003;17137;51.494;-0.262;2022-10-16T03:19:33;8;6;
28647;PMS5003;17137;51.494;-0.262;2022-10-16T03:20:03;8;6;
28647;PMS5003;17137;51.494;-0.262;2022-10-16T03:20:34;8;6;
28647;PMS5003;17137;51.494;-0.262;2022-10-16T03:21:05;8;6;
28647;PMS5003;17137;51.494;-0.262;2022-10-16T03:21:35;7;5;
28647;PMS5003;17137;51.494;-0.262;2022-10-16T03:22:06;6;5;
28647;PMS5003;17137;51.494;-0.262;2022-10-16T03:22:36;6;5;
28647;PMS5003;17137;51.494;-0.262;2022-10-16T03:23:06;6;5;
28647;PMS5003;17137;51.494;-0.262;2022-10-16T03:23:36;6;4;
28647;PMS5003;17137;51.494;-0.262;2022-10-16T03:24:07;6;4;
28647;PMS5003;17137;51.494;-0.262;2022-10-16T03:24:37;6;4;
28647;PMS5003;17137;51.494;-0.262;2022-10-16T03:25:08;5;5;
28647;PMS5003;17137;51.494;-0.262;2022-10-16T03:25:38;5;5;
28647;PMS5003;17137;51.494;-0.262;2022-10-16T03:26:08;5;5;
28647;PMS5003;17137;51.494;-0.262;2022-10-16T03:26:39;5;5;
28647;PMS5003;17137;51.494;-0.262;2022-10-16T03:27:10;5;5;
28647;PMS5003;17137;51.494;-0.262;2022-10-16T03:27:40;4;4;
28647;PMS5003;17137;51.494;-0.262;2022-10-16T03:28:10;4;4;
28647;PMS5003;17137;51.494;-0.262;2022-10-16T03:28:41;4;4;
28647;PMS5003;17137;51.494;-0.262;2022-10-16T03:29:11;4;4;
28647;PMS5003;17137;51.494;-0.262;2022-10-16T03:29:41;4;4;
28647;PMS5003;17137;51.494;-0.262;2022-10-16T03:30:12;5;5;
28647;PMS5003;17137;51.494;-0.262;2022-10-16T03:30:42;5;5;
28647;PMS5003;17137;51.494;-0.262;2022-10-16T03:31:13;5;5;
28647;PMS5003;17137;51.494;-0.262;2022-10-16T03:31:43;6;5;
28647;PMS5003;17137;51.494;-0.262;2022-10-16T03:32:14;6;5;
28647;PMS5003;17137;51.494;-0.262;2022-10-16T03:32:44;6;5;
28647;PMS5003;17137;51.494;-0.262;2022-10-16T03:33:14;6;5;
28647;PMS5003;17137;51.494;-0.262;2022-10-16T03:33:45;6;5;
28647;PMS5003;17137;51.494;-0.262;2022-10-16T03:34:15;6;5;
28647;PMS5003;17137;51.494;-0.262;2022-10-16T03:34:45;6;5;
28647;PMS5003;17137;51.494;-0.262;2022-10-16T03:35:16;6;5;
28647;PMS5003;17137;51.494;-0.262;2022-10-16T03:35:50;7;3;
28647;PMS5003;17137;51.494;-0.262;2022-10-16T03:36:21;5;3;
28647;PMS5003;17137;51.494;-0.262;2022-10-16T03:36:52;6;4;
28647;PMS5003;17137;51.494;-0.262;2022-10-16T03:37:22;6;4;
28647;PMS5003;17137;51.494;-0.262;2022-10-16T03:37:53;6;3;
28647;PMS5003;17137;51.494;-0.262;2022-10-16T03:38:23;6;3;
28647;PMS5003;17137;51.494;-0.262;2022-10-16T03:38:53;6;3;
28647;PMS5003;17137;51.494;-0.262;2022-10-16T03:39:23;5;4;
28647;PMS5003;17137;51.494;-0.262;2022-10-16T03:39:54;5;4;